Terminal Aerodrome Forecast
Issued by NWS Spokane, WA

Home | Current Version | Previous Version | Text Only | Print | Product List | Glossary On
Versions: 1 2 3 4 5 6 7 8 9 10 11 12 13 14 15 16
000
FTUS46 KOTX 010520
TAFLWS
TAF
KLWS 010520Z 0106/0206 30010KT P6SM -TSRA BKN080CB BKN120
     FM011200 VRB04KT P6SM SCT100 BKN200
     FM020400 24004KT P6SM FEW100=

USA.gov is the U.S. government's official web portal to all federal, state and local government web resources and services.